Portada
METAR-TAF:

METAR-TAF

Aeropuertos :

Castres, Francia

latitud: 43-33-25N, longitud: 2-17-21E, altitud: 239 m

Observación

El informe se hizo hace 25 minutos, a las 17:00 UTC
Viento 14 kt del oeste-noroeste
Temperatura 18°C
Humedad 64%
Presión 1026 hPa
Visibilidad 10 km o más
sin nubes por debajo de 1500 m y sin presencia de cumulonimbus.

METAR: LFCK 261700Z AUTO 30014KT CAVOK 18/11 Q1026 NOSIG

Hora: 19:25 (17:25 UTC)

Pronóstico

El informe se hizo hace 3 horas y 25 minutos, a las 14:00 UTC
Pronóstico válido del 26 a las 15 UTC al 26 a las 24 UTC
Viento 13 kt del noroeste
Visibilidad 10 km o más
Cielo nuboso a una altura de 4000 ft

TAF: LFCK 261400Z 2615/2624 31013KT 9999 BKN040

Observaciones y pronósticos meteorológicos de más de 4000 aeropuertos (mensajes METAR y TAF).

Los puntos amarillos y rojos representan las estaciones disponibles.

Ponga el ratón en el punto deseado para ver el nombre de la estación.

Haga clic para ver las observaciones y los pronósticos meteorológicos.

Para cambiar el mapa : haga clic en los botones verdes con una cruz de color negro para hacer un zoom, en el botón verde con un guión para alejar o en las flechas verdes para mapas adyacentes.


METAR-TAF: